Time;durP1;ratioP1;P1;durP2;ratioP2;P2;SDS_P1;SDS_P2;PMS_P1;PMS_P2;Temp;Humidity;BMP_temperature;BMP_pressure;BME280_temperature;BME280_humidity;BME280_pressure;Samples;Min_cycle;Max_cycle;Signal;HPM_P1;HPM_P2
2021/07/27 00:01:18;;;;;;;7.62;5.80;;;;;;;20.48;76.40;99746.72;1745750;81;21048;-83
2021/07/27 00:03:45;;;;;;;7.55;5.80;;;;;;;20.45;76.53;99740.41;1733987;82;21026;-83
2021/07/27 00:06:11;;;;;;;7.47;5.50;;;;;;;20.45;76.62;99747.92;1747521;81;21097;-83
2021/07/27 00:08:38;;;;;;;6.70;5.62;;;;;;;20.44;76.76;99751.64;1749289;80;20954;-83
2021/07/27 00:11:09;;;;;;;7.10;6.05;;;;;;;20.44;77.15;99748.95;1766469;80;20957;-83
2021/07/27 00:13:36;;;;;;;7.90;6.70;;;;;;;20.41;77.40;99743.14;1755354;80;21023;-84
2021/07/27 00:16:04;;;;;;;9.13;5.72;;;;;;;20.40;77.33;99740.98;1763786;81;21001;-84
2021/07/27 00:18:31;;;;;;;7.10;5.67;;;;;;;20.40;77.33;99749.02;1763584;81;21049;-84
2021/07/27 00:21:00;;;;;;;6.83;5.90;;;;;;;20.39;77.51;99750.02;1751556;81;21452;-84
2021/07/27 00:23:26;;;;;;;9.65;5.83;;;;;;;20.38;78.06;99747.03;1744429;81;20994;-84
2021/07/27 00:25:51;;;;;;;8.85;5.83;;;;;;;20.35;78.20;99738.02;1747663;82;21001;-84
2021/07/27 00:28:17;;;;;;;7.47;5.92;;;;;;;20.32;78.11;99743.25;1748213;81;21006;-83
2021/07/27 00:30:43;;;;;;;7.62;5.70;;;;;;;20.32;78.49;99745.09;1748125;81;20974;-84
2021/07/27 00:33:10;;;;;;;7.78;5.95;;;;;;;20.31;78.48;99748.80;1751616;81;20937;-84
2021/07/27 00:35:36;;;;;;;7.55;6.05;;;;;;;20.30;78.49;99750.66;1756969;81;21032;-84
2021/07/27 00:38:08;;;;;;;5.67;5.08;;;;;;;20.29;78.81;99754.34;1752159;82;21500;-84
2021/07/27 00:40:36;;;;;;;;;;;;;;;20.27;78.83;99750.17;1749310;82;20990;-83
2021/07/27 00:43:14;;;;;;;7.55;5.05;;;;;;;20.27;78.99;99755.05;1743189;81;20096;-83
2021/07/27 00:45:41;;;;;;;6.60;5.33;;;;;;;20.27;78.85;99748.35;1748339;82;21372;-84
2021/07/27 00:48:08;;;;;;;7.42;5.30;;;;;;;20.26;79.27;99741.31;1748369;81;21053;-84
2021/07/27 00:50:35;;;;;;;6.78;5.85;;;;;;;20.24;79.45;99738.53;1748289;81;21438;-84
2021/07/27 00:53:04;;;;;;;7.60;5.22;;;;;;;20.21;79.49;99732.20;1750531;81;21044;-84
2021/07/27 00:55:31;;;;;;;5.15;4.65;;;;;;;20.18;79.57;99730.72;1741640;82;20989;-84
2021/07/27 00:57:57;;;;;;;6.83;4.75;;;;;;;20.15;79.51;99735.94;1746480;82;21020;-84
2021/07/27 01:00:25;;;;;;;6.00;4.60;;;;;;;20.14;79.49;99734.30;1747870;82;21002;-84
2021/07/27 01:02:51;;;;;;;5.62;4.78;;;;;;;20.15;79.46;99740.47;1742467;81;21037;-84
2021/07/27 01:05:18;;;;;;;6.08;4.53;;;;;;;20.14;79.54;99745.00;1748508;82;20998;-85
2021/07/27 01:07:44;;;;;;;5.15;4.45;;;;;;;20.14;79.54;99747.69;1742737;81;21012;-84
2021/07/27 01:10:14;;;;;;;5.20;4.37;;;;;;;20.10;79.69;99745.06;1742571;82;21476;-84
2021/07/27 01:12:40;;;;;;;4.80;4.30;;;;;;;20.08;79.77;99737.72;1741782;82;21025;-84
2021/07/27 01:15:08;;;;;;;5.35;4.67;;;;;;;20.05;79.90;99739.94;1748769;81;20954;-84
2021/07/27 01:17:34;;;;;;;8.60;5.03;;;;;;;20.02;79.91;99734.44;1742070;81;20973;-84
2021/07/27 01:43:52;;;;;;;7.03;5.28;;;;;;;19.88;80.22;99749.52;1750900;81;21004;-84
2021/07/27 01:46:22;;;;;;;9.90;4.30;;;;;;;19.88;80.13;99751.36;1763190;81;21001;-84
2021/07/27 01:48:47;;;;;;;6.58;4.92;;;;;;;19.86;80.27;99754.20;1741340;82;21017;-84
2021/07/27 01:51:19;;;;;;;5.53;4.33;;;;;;;19.83;80.36;99749.22;1750577;81;21013;-84
2021/07/27 01:53:49;;;;;;;7.30;4.45;;;;;;;19.80;80.48;99740.22;1748377;81;21070;-84
2021/07/27 01:56:18;;;;;;;12.68;5.83;;;;;;;19.79;80.55;99749.28;1746679;81;20993;-83
2021/07/27 01:58:47;;;;;;;7.35;4.12;;;;;;;19.77;80.54;99747.80;1744009;82;21461;-84
2021/07/27 02:01:13;;;;;;;6.92;3.95;;;;;;;19.74;80.62;99750.33;1741947;82;21032;-84
2021/07/27 02:03:39;;;;;;;6.50;4.35;;;;;;;19.73;80.69;99755.88;1741992;82;20982;-84
2021/07/27 02:06:05;;;;;;;6.20;4.30;;;;;;;19.72;80.82;99754.22;1745460;81;21432;-83
2021/07/27 02:08:31;;;;;;;5.35;4.25;;;;;;;19.69;80.85;99756.75;1747055;81;20950;-83
2021/07/27 02:11:04;;;;;;;6.60;4.72;;;;;;;19.67;80.83;99757.44;1747735;81;21355;-84
2021/07/27 02:13:45;;;;;;;4.87;3.83;;;;;;;19.64;80.91;99754.64;1748068;81;20990;-84
2021/07/27 02:16:04;;;;;;;5.33;4.10;;;;;;;19.62;81.09;99762.49;1750167;81;21036;-84
2021/07/27 02:18:30;;;;;;;5.28;4.22;;;;;;;19.59;81.09;99769.03;1747826;81;20970;-84
2021/07/27 02:20:58;;;;;;;7.28;4.37;;;;;;;19.58;81.07;99767.89;1748219;81;20983;-83
2021/07/27 02:23:27;;;;;;;5.85;4.58;;;;;;;19.56;81.05;99772.08;1748166;82;21010;-83
2021/07/27 02:25:53;;;;;;;6.00;4.30;;;;;;;19.54;80.98;99771.92;1749899;81;20997;-84
2021/07/27 02:28:19;;;;;;;10.28;4.62;;;;;;;19.52;81.21;99777.98;1763720;81;21479;-84
2021/07/27 02:30:49;;;;;;;6.40;4.72;;;;;;;19.50;81.02;99771.97;1756598;81;21021;-84
2021/07/27 02:33:12;;;;;;;8.75;4.40;;;;;;;19.48;81.21;99770.83;1747603;81;21069;-84
2021/07/27 02:35:41;;;;;;;8.03;4.12;;;;;;;19.46;81.33;99774.19;1748643;81;21186;-84
2021/07/27 02:38:08;;;;;;;7.33;4.62;;;;;;;19.43;81.28;99775.89;1741459;82;20972;-84
2021/07/27 02:40:36;;;;;;;7.80;5.28;;;;;;;19.40;81.36;99778.41;1742116;82;20985;-84
2021/07/27 02:43:04;;;;;;;5.83;5.10;;;;;;;19.36;81.40;99769.09;1741946;82;20977;-84
2021/07/27 02:45:32;;;;;;;9.25;5.12;;;;;;;19.32;81.51;99765.13;1718340;82;21034;-84
2021/07/27 02:47:58;;;;;;;5.30;4.10;;;;;;;19.29;81.71;99761.98;1718533;82;21045;-84
2021/07/27 02:50:28;;;;;;;6.53;4.62;;;;;;;19.23;81.67;99743.48;1726426;82;20984;-84
2021/07/27 02:52:55;;;;;;;7.90;4.90;;;;;;;19.19;81.88;99740.84;1745520;82;21044;-84
2021/07/27 02:55:21;;;;;;;7.30;4.95;;;;;;;19.17;81.98;99737.00;1746516;81;20981;-84
2021/07/27 02:57:50;;;;;;;5.58;4.87;;;;;;;19.16;82.07;99738.53;1747844;81;21024;-84
2021/07/27 03:00:18;;;;;;;7.70;5.08;;;;;;;19.14;82.15;99745.38;1747917;82;21052;-84
2021/07/27 03:02:45;;;;;;;8.53;5.50;;;;;;;19.13;82.19;99750.92;1748216;82;20997;-84
2021/07/27 03:05:16;;;;;;;6.45;4.70;;;;;;;19.12;82.20;99745.27;1748085;81;21588;-84
2021/07/27 03:10:22;;;;;;;8.73;4.90;;;;;;;19.10;82.28;99758.80;1742092;82;21550;-84
2021/07/27 03:12:56;;;;;;;7.08;4.87;;;;;;;19.10;82.42;99761.98;1742212;82;21018;-84
2021/07/27 03:15:25;;;;;;;5.50;4.55;;;;;;;19.05;82.45;99757.66;1747826;81;20966;-84
2021/07/27 03:17:57;;;;;;;6.53;4.72;;;;;;;19.03;82.57;99759.70;1748338;81;21018;-84
2021/07/27 03:20:25;;;;;;;;;;;;;;;19.02;82.62;99762.03;1750887;81;21480;-84
2021/07/27 03:22:53;;;;;;;6.00;4.75;;;;;;;19.03;82.85;99769.89;1748087;82;20105;-84
2021/07/27 03:25:19;;;;;;;7.03;4.58;;;;;;;19.02;82.64;99777.59;1755633;81;20977;-84
2021/07/27 03:27:51;;;;;;;12.63;5.05;;;;;;;19.02;82.65;99769.58;1742759;80;21033;-84
2021/07/27 03:30:20;;;;;;;8.40;5.10;;;;;;;19.03;82.57;99773.08;1784576;80;20961;-84
2021/07/27 03:32:48;;;;;;;6.53;4.80;;;;;;;19.03;82.61;99782.44;1783740;80;21282;-84
2021/07/27 03:35:15;;;;;;;8.23;5.00;;;;;;;19.03;82.98;99798.47;1759056;80;21016;-84
2021/07/27 03:37:41;;;;;;;6.22;4.62;;;;;;;19.02;82.91;99794.12;1746812;81;21017;-84
2021/07/27 03:40:09;;;;;;;8.23;4.20;;;;;;;19.02;83.09;99807.48;1748425;81;21038;-83
2021/07/27 03:42:35;;;;;;;7.03;5.03;;;;;;;19.02;82.80;99803.47;1748130;81;21018;-84
2021/07/27 03:45:01;;;;;;;8.50;5.17;;;;;;;19.02;82.95;99805.67;1746299;81;21435;-84
2021/07/27 03:47:27;;;;;;;8.15;4.83;;;;;;;19.04;82.91;99806.30;1741728;82;20981;-84
2021/07/27 03:49:57;;;;;;;8.68;5.47;;;;;;;19.04;82.92;99804.97;1742377;82;21323;-84
2021/07/27 03:52:23;;;;;;;10.70;5.00;;;;;;;19.03;82.75;99810.00;1741703;82;21056;-85
2021/07/27 03:54:50;;;;;;;6.65;5.20;;;;;;;19.05;83.16;99810.66;1745763;81;21020;-85
2021/07/27 03:57:16;;;;;;;8.88;5.75;;;;;;;19.05;83.18;99818.69;1743025;82;21495;-85
2021/07/27 03:59:42;;;;;;;9.15;6.17;;;;;;;19.06;83.28;99827.02;1747352;82;20986;-85
2021/07/27 04:02:08;;;;;;;8.35;6.47;;;;;;;19.07;83.24;99836.70;1747192;81;20985;-85
2021/07/27 04:04:35;;;;;;;8.15;4.97;;;;;;;19.07;83.45;99834.02;1745645;81;20986;-85
2021/07/27 04:07:02;;;;;;;8.03;5.85;;;;;;;19.08;83.46;99840.20;1744780;81;21064;-85
2021/07/27 04:09:28;;;;;;;11.03;6.50;;;;;;;19.10;83.65;99851.05;1741964;82;21032;-85
2021/07/27 04:11:55;;;;;;;7.33;5.72;;;;;;;19.10;83.95;99844.36;1741875;82;21037;-85
2021/07/27 04:14:22;;;;;;;6.87;5.53;;;;;;;19.14;83.60;99843.50;1744961;81;21013;-85
2021/07/27 04:16:48;;;;;;;6.60;5.97;;;;;;;19.14;83.55;99836.81;1743539;82;21013;-88
2021/07/27 04:19:14;;;;;;;8.05;5.45;;;;;;;19.16;83.73;99841.49;1742614;82;21042;-88
2021/07/27 04:21:44;;;;;;;7.37;6.35;;;;;;;19.17;83.69;99839.96;1743053;82;20974;-88
2021/07/27 04:24:10;;;;;;;5.90;5.15;;;;;;;19.18;83.62;99839.45;1748283;81;20970;-88
2021/07/27 04:26:36;;;;;;;10.60;6.10;;;;;;;19.17;83.38;99824.42;1748391;81;21046;-88
2021/07/27 04:29:02;;;;;;;7.58;5.15;;;;;;;19.17;83.81;99826.59;1748640;81;20943;-88
2021/07/27 04:31:28;;;;;;;8.15;5.90;;;;;;;19.17;83.93;99824.42;1748438;82;21504;-88
2021/07/27 04:33:54;;;;;;;7.12;6.12;;;;;;;19.19;83.84;99830.44;1748530;81;20990;-88
2021/07/27 04:36:20;;;;;;;9.55;6.20;;;;;;;19.22;83.73;99836.77;1748564;81;21460;-88
2021/07/27 04:38:46;;;;;;;8.75;7.00;;;;;;;19.21;83.72;99845.78;1748802;81;20973;-88
2021/07/27 04:41:11;;;;;;;9.75;6.33;;;;;;;19.23;83.88;99848.30;1758143;81;20968;-88
2021/07/27 04:43:39;;;;;;;14.98;7.35;;;;;;;19.23;83.87;99845.11;1757163;81;21105;-88
2021/07/27 04:46:07;;;;;;;11.22;7.03;;;;;;;19.25;83.78;99843.58;1749473;81;20970;-87
2021/07/27 04:48:33;;;;;;;7.55;6.35;;;;;;;19.28;84.14;99841.41;1748408;81;20999;-88
2021/07/27 04:51:00;;;;;;;11.18;6.53;;;;;;;19.30;84.32;99834.52;1748420;81;20954;-88
2021/07/27 04:53:26;;;;;;;9.28;6.08;;;;;;;19.32;84.42;99836.53;1748304;81;21006;-88
2021/07/27 04:55:59;;;;;;;9.43;6.72;;;;;;;19.35;84.54;99836.17;1757202;81;21033;-88
2021/07/27 04:58:25;;;;;;;7.78;6.72;;;;;;;19.38;84.70;99831.77;1762585;81;20961;-87
2021/07/27 05:00:51;;;;;;;8.53;6.17;;;;;;;19.41;84.40;99834.08;1762616;81;21458;-88
2021/07/27 05:03:17;;;;;;;12.28;5.42;;;;;;;19.44;84.23;99838.56;1763729;81;20941;-88
2021/07/27 05:05:43;;;;;;;9.53;6.97;;;;;;;19.47;84.33;99838.72;1760620;81;20997;-88
2021/07/27 05:08:09;;;;;;;7.35;5.85;;;;;;;19.49;84.07;99843.39;1749944;81;20974;-88
2021/07/27 05:10:34;;;;;;;7.90;6.17;;;;;;;19.52;83.98;99854.25;1752428;81;21005;-88
2021/07/27 05:13:00;;;;;;;12.25;6.70;;;;;;;19.54;84.21;99850.86;1748277;81;21028;-88
2021/07/27 05:15:26;;;;;;;10.95;6.85;;;;;;;19.59;84.21;99865.89;1748479;81;21061;-88
2021/07/27 05:18:00;;;;;;;8.50;7.10;;;;;;;19.63;84.13;99860.02;1748403;82;20985;-88
2021/07/27 05:20:29;;;;;;;9.73;6.47;;;;;;;19.69;84.20;99862.48;1749154;81;21072;-86
2021/07/27 05:22:56;;;;;;;14.25;6.83;;;;;;;19.74;84.29;99868.09;1759321;81;20990;-85
2021/07/27 05:25:22;;;;;;;13.50;8.55;;;;;;;19.79;84.26;99861.70;1748715;81;21017;-85
2021/07/27 05:27:49;;;;;;;12.05;6.45;;;;;;;19.82;84.06;99865.36;1748314;82;21029;-85
2021/07/27 05:30:16;;;;;;;11.00;7.15;;;;;;;19.85;84.01;99870.86;1748616;81;20942;-85
2021/07/27 05:32:43;;;;;;;9.75;6.40;;;;;;;19.88;84.16;99871.84;1748223;81;21045;-85
2021/07/27 05:35:11;;;;;;;9.45;6.53;;;;;;;19.90;84.10;99877.83;1756038;81;20949;-85
2021/07/27 05:37:37;;;;;;;9.55;7.05;;;;;;;19.92;83.84;99882.50;1763823;81;21500;-85
2021/07/27 05:40:05;;;;;;;20.25;6.60;;;;;;;19.96;83.96;99886.47;1762650;81;20977;-85
2021/07/27 05:42:31;;;;;;;13.32;5.90;;;;;;;19.98;83.97;99877.76;1750478;81;20961;-85
2021/07/27 05:44:56;;;;;;;14.45;6.40;;;;;;;20.02;83.83;99878.22;1748568;81;20976;-85
2021/07/27 05:47:22;;;;;;;14.43;6.17;;;;;;;20.04;84.14;99877.03;1748342;81;20930;-85
2021/07/27 05:49:48;;;;;;;15.13;6.35;;;;;;;20.08;83.96;99881.51;1748505;82;21500;-85
2021/07/27 05:52:14;;;;;;;9.68;5.30;;;;;;;20.09;83.92;99886.66;1748385;81;20986;-85
2021/07/27 05:54:42;;;;;;;12.10;5.58;;;;;;;20.14;83.88;99891.48;1750048;81;21041;-85
2021/07/27 05:57:15;;;;;;;10.82;5.30;;;;;;;20.18;84.04;99895.45;1750559;81;22172;-85
2021/07/27 05:59:42;;;;;;;10.15;5.22;;;;;;;20.22;83.75;99896.74;1748503;82;20973;-87
2021/07/27 06:02:11;;;;;;;12.43;5.20;;;;;;;20.24;83.81;99893.38;1761652;81;21475;-87
2021/07/27 06:04:38;;;;;;;13.62;5.12;;;;;;;20.30;84.01;99895.81;1763947;81;21476;-86
2021/07/27 06:07:04;;;;;;;12.18;5.20;;;;;;;20.35;84.05;99894.77;1762465;81;21514;-86
2021/07/27 06:09:31;;;;;;;14.20;5.72;;;;;;;20.40;83.91;99893.71;1761482;81;21457;-86
2021/07/27 06:11:57;;;;;;;12.98;6.65;;;;;;;20.46;83.76;99894.28;1760409;81;21005;-86
2021/07/27 06:14:23;;;;;;;16.42;6.22;;;;;;;20.49;83.32;99891.23;1751251;81;20923;-86
2021/07/27 06:16:49;;;;;;;12.20;5.45;;;;;;;20.54;83.27;99894.75;1759864;81;21544;-86
2021/07/27 06:19:15;;;;;;;11.70;5.62;;;;;;;20.55;83.20;99890.52;1748687;81;21532;-86
2021/07/27 06:21:41;;;;;;;6.72;5.40;;;;;;;20.57;82.73;99883.14;1748283;81;21040;-86
2021/07/27 06:24:09;;;;;;;7.42;4.40;;;;;;;20.60;82.21;99889.98;1748321;82;21495;-86
2021/07/27 06:26:36;;;;;;;4.80;4.10;;;;;;;20.62;81.54;99889.27;1748226;81;20996;-86
2021/07/27 06:29:04;;;;;;;6.85;4.95;;;;;;;20.62;80.89;99883.91;1748457;81;20979;-86
2021/07/27 06:31:33;;;;;;;6.60;4.55;;;;;;;20.66;80.95;99887.04;1748415;82;20976;-85
2021/07/27 06:34:04;;;;;;;8.58;5.42;;;;;;;20.70;81.24;99889.69;1747659;81;21008;-85
2021/07/27 06:36:33;;;;;;;8.43;4.80;;;;;;;20.74;81.34;99890.45;1736991;82;21020;-85
2021/07/27 06:39:01;;;;;;;6.05;4.78;;;;;;;20.75;80.45;99888.09;1748590;81;21149;-85
2021/07/27 06:41:27;;;;;;;6.12;5.05;;;;;;;20.78;80.93;99890.91;1737587;82;21036;-85
2021/07/27 06:43:53;;;;;;;9.08;4.50;;;;;;;20.82;80.64;99886.83;1748372;81;21539;-85
2021/07/27 06:46:19;;;;;;;8.93;4.40;;;;;;;20.87;80.80;99883.08;1748438;82;21030;-85
2021/07/27 06:48:44;;;;;;;13.10;5.22;;;;;;;20.92;80.45;99886.02;1748425;81;21494;-85
2021/07/27 06:51:16;;;;;;;6.55;4.87;;;;;;;20.97;80.60;99890.83;1748462;81;21003;-85
2021/07/27 06:53:43;;;;;;;5.30;4.25;;;;;;;21.01;80.51;99894.27;1748419;81;21050;-87
2021/07/27 06:56:11;;;;;;;8.98;4.87;;;;;;;21.08;80.56;99891.66;1748304;82;21536;-87
2021/07/27 06:58:41;;;;;;;6.05;4.83;;;;;;;21.14;80.08;99888.22;1748380;81;21489;-87
2021/07/27 07:01:10;;;;;;;8.08;4.50;;;;;;;21.21;79.78;99882.92;1748253;81;21475;-86
2021/07/27 07:03:41;;;;;;;7.17;4.65;;;;;;;21.24;79.80;99881.20;1747936;82;22314;-87
2021/07/27 07:06:11;;;;;;;7.87;4.33;;;;;;;21.30;79.02;99883.95;1748048;81;21007;-87
2021/07/27 07:08:36;;;;;;;7.62;4.87;;;;;;;21.36;79.17;99888.27;1748016;81;21031;-87
2021/07/27 07:11:05;;;;;;;7.45;4.67;;;;;;;21.40;79.42;99886.34;1747947;81;21460;-87
2021/07/27 07:13:32;;;;;;;4.75;3.70;;;;;;;21.47;78.86;99881.03;1748167;81;21029;-86
2021/07/27 07:15:58;;;;;;;8.48;4.22;;;;;;;21.52;79.21;99882.13;1748370;81;21491;-88
2021/07/27 07:18:24;;;;;;;6.20;4.03;;;;;;;21.61;78.45;99884.66;1748237;81;21033;-87
2021/07/27 07:20:51;;;;;;;7.22;3.67;;;;;;;21.67;78.37;99891.42;1753868;81;20980;-87
2021/07/27 07:23:19;;;;;;;5.33;3.20;;;;;;;21.75;79.06;99893.13;1763613;81;21427;-86
2021/07/27 07:25:46;;;;;;;7.97;6.05;;;;;;;21.83;78.19;99882.78;1762440;81;20966;-87
2021/07/27 07:28:17;;;;;;;6.90;4.05;;;;;;;21.90;78.25;99880.97;1742428;80;21017;-87
2021/07/27 07:30:43;;;;;;;6.40;3.47;;;;;;;21.98;77.76;99877.63;1751195;80;21543;-87
2021/07/27 07:33:10;;;;;;;6.42;4.30;;;;;;;22.07;77.39;99883.66;1740239;80;20997;-88
2021/07/27 07:35:36;;;;;;;6.90;4.20;;;;;;;22.16;76.86;99874.97;1775238;80;21021;-86
2021/07/27 07:38:03;;;;;;;6.60;4.00;;;;;;;22.23;75.88;99875.83;1779254;80;21537;-87
2021/07/27 07:40:30;;;;;;;4.25;3.20;;;;;;;22.33;75.88;99875.48;1784147;80;21017;-87
2021/07/27 07:43:00;;;;;;;5.58;3.55;;;;;;;22.42;75.78;99881.83;1773120;80;21448;-88
2021/07/27 07:45:28;;;;;;;5.58;3.65;;;;;;;22.50;75.58;99874.11;1764836;80;21000;-89
2021/07/27 07:47:54;;;;;;;6.72;3.58;;;;;;;22.61;74.91;99879.45;1745271;80;21043;-86
2021/07/27 07:50:21;;;;;;;6.03;3.58;;;;;;;22.68;75.26;99868.20;1784165;80;22045;-86
2021/07/27 07:52:59;;;;;;;7.03;3.70;;;;;;;22.76;73.88;99872.04;1784556;80;21056;-86
2021/07/27 07:55:25;;;;;;;6.05;3.80;;;;;;;22.82;74.88;99869.06;1747271;80;21009;-87
2021/07/27 07:57:51;;;;;;;6.33;3.42;;;;;;;22.90;74.60;99877.80;1739609;81;21010;-87
2021/07/27 08:00:19;;;;;;;5.83;3.35;;;;;;;22.94;74.05;99876.38;1748051;82;20962;-87
2021/07/27 08:02:45;;;;;;;7.37;4.20;;;;;;;22.98;73.62;99879.50;1748258;82;21072;-88
2021/07/27 08:05:12;;;;;;;6.72;3.62;;;;;;;23.01;73.23;99881.78;1748083;82;21018;-88
2021/07/27 08:07:37;;;;;;;4.58;2.87;;;;;;;23.07;73.73;99884.19;1748240;81;21030;-86
2021/07/27 08:10:04;;;;;;;7.22;3.33;;;;;;;23.14;73.52;99886.37;1748462;82;21559;-87
2021/07/27 08:12:30;;;;;;;3.40;3.10;;;;;;;23.19;72.91;99885.23;1748348;81;21492;-87
2021/07/27 08:14:56;;;;;;;7.20;4.30;;;;;;;23.25;72.93;99884.41;1748524;81;20978;-86
2021/07/27 08:17:22;;;;;;;7.55;3.50;;;;;;;23.29;72.17;99878.92;1748024;82;21061;-87
2021/07/27 08:19:48;;;;;;;6.25;3.35;;;;;;;23.33;72.43;99883.38;1747717;81;21041;-87
2021/07/27 08:22:14;;;;;;;6.53;3.05;;;;;;;23.39;73.06;99891.98;1747925;82;21048;-87
2021/07/27 08:24:40;;;;;;;4.10;3.27;;;;;;;23.46;72.76;99890.64;1748644;81;21053;-87
2021/07/27 08:27:09;;;;;;;4.45;2.80;;;;;;;23.54;72.84;99901.23;1748190;82;21515;-89
2021/07/27 08:29:39;;;;;;;5.05;3.50;;;;;;;23.60;72.05;99901.75;1748222;82;21041;-86
2021/07/27 08:32:09;;;;;;;4.33;3.00;;;;;;;23.65;72.03;99903.30;1737660;82;21072;-86
2021/07/27 08:34:42;;;;;;;6.12;4.37;;;;;;;23.70;71.38;99904.89;1748570;82;21040;-86
2021/07/27 08:37:08;;;;;;;7.37;3.60;;;;;;;23.75;71.10;99906.95;1748118;81;20987;-86
2021/07/27 08:39:34;;;;;;;6.35;4.03;;;;;;;23.77;70.89;99915.14;1748402;81;21489;-86
2021/07/27 08:42:02;;;;;;;7.95;3.33;;;;;;;23.80;70.56;99911.22;1747972;81;21014;-86
2021/07/27 08:44:31;;;;;;;11.53;4.47;;;;;;;23.82;71.00;99905.08;1748575;81;20978;-86
2021/07/27 08:46:59;;;;;;;5.58;3.80;;;;;;;23.91;71.50;99908.41;1748278;81;20970;-87
2021/07/27 08:49:26;;;;;;;11.30;4.03;;;;;;;24.00;71.93;99905.28;1748147;81;20985;-86
2021/07/27 08:51:52;;;;;;;6.95;3.87;;;;;;;24.05;70.04;99904.16;1747760;81;21563;-87
2021/07/27 08:54:17;;;;;;;6.58;3.85;;;;;;;24.11;70.85;99909.20;1748580;81;21030;-87
2021/07/27 08:56:48;;;;;;;7.65;3.65;;;;;;;24.22;71.78;99911.77;1748240;82;21002;-86
2021/07/27 08:59:15;;;;;;;5.28;4.00;;;;;;;24.36;70.54;99913.42;1748587;81;21477;-88
2021/07/27 09:01:41;;;;;;;6.60;3.65;;;;;;;24.51;70.63;99910.48;1748273;81;21416;-88
2021/07/27 09:04:07;;;;;;;10.70;4.70;;;;;;;24.66;70.92;99915.11;1748625;81;21002;-88
2021/07/27 09:06:33;;;;;;;4.55;3.92;;;;;;;24.81;71.29;99913.52;1748654;81;21012;-89
2021/07/27 09:09:09;;;;;;;5.95;3.75;;;;;;;24.95;70.92;99915.63;1748585;82;20974;-88
2021/07/27 09:11:48;;;;;;;6.78;3.58;;;;;;;25.07;69.64;99920.62;1748342;82;20978;-90
2021/07/27 09:14:22;;;;;;;6.58;3.75;;;;;;;25.13;69.65;99915.75;1748523;81;21116;-88
2021/07/27 09:16:57;;;;;;;6.75;3.50;;;;;;;25.22;68.98;99919.85;1752373;81;21017;-89
2021/07/27 09:19:24;;;;;;;7.95;4.17;;;;;;;25.33;69.38;99926.42;1759475;81;20954;-89
2021/07/27 09:21:51;;;;;;;9.13;4.30;;;;;;;25.45;68.45;99925.22;1748401;81;21017;-88
2021/07/27 09:24:24;;;;;;;5.50;3.83;;;;;;;25.58;68.87;99922.42;1746743;82;21054;-86
2021/07/27 09:27:05;;;;;;;5.50;4.03;;;;;;;25.72;69.16;99923.14;1748361;81;21021;-87
2021/07/27 09:29:47;;;;;;;5.50;4.40;;;;;;;25.81;67.41;99912.41;1748666;82;21017;-89
2021/07/27 09:32:19;;;;;;;7.37;4.50;;;;;;;25.95;68.46;99917.98;1748565;81;21064;-86
2021/07/27 09:34:46;;;;;;;5.22;3.50;;;;;;;26.07;66.13;99909.98;1748109;81;21598;-87
2021/07/27 09:37:13;;;;;;;3.95;2.60;;;;;;;26.24;66.42;99909.41;1748400;81;20986;-87
2021/07/27 09:39:40;;;;;;;4.33;2.72;;;;;;;26.37;65.80;99909.27;1748639;81;20990;-88
2021/07/27 09:42:09;;;;;;;5.50;3.62;;;;;;;26.53;65.83;99915.46;1748302;81;20990;-88
2021/07/27 09:44:39;;;;;;;4.15;3.20;;;;;;;26.63;64.74;99914.94;1748557;81;21480;-89
2021/07/27 09:47:06;;;;;;;4.17;3.02;;;;;;;26.73;65.34;99920.63;1748233;81;21088;-87
2021/07/27 09:49:33;;;;;;;3.85;3.10;;;;;;;26.86;64.87;99919.11;1748671;81;20994;-86
2021/07/27 09:51:59;;;;;;;6.58;3.42;;;;;;;27.00;64.14;99916.23;1748245;81;21571;-87
2021/07/27 09:54:26;;;;;;;5.35;2.90;;;;;;;27.09;63.74;99921.09;1748557;82;21053;-87
2021/07/27 09:56:55;;;;;;;3.98;3.42;;;;;;;27.18;62.44;99923.50;1748355;81;21017;-89
2021/07/27 09:59:24;;;;;;;4.78;3.45;;;;;;;27.30;62.02;99921.13;1748857;82;20998;-88
2021/07/27 10:02:03;;;;;;;4.22;2.52;;;;;;;27.42;61.13;99924.42;1748382;81;21070;-88
2021/07/27 10:04:38;;;;;;;5.58;3.10;;;;;;;27.45;61.20;99928.85;1748581;81;21045;-88
2021/07/27 10:07:06;;;;;;;6.40;3.27;;;;;;;27.53;61.02;99930.39;1748381;82;21074;-87
2021/07/27 10:09:35;;;;;;;4.40;3.37;;;;;;;27.55;59.39;99935.06;1748704;81;21018;-88
2021/07/27 10:12:13;;;;;;;5.62;3.12;;;;;;;27.57;60.04;99935.13;1748291;81;21077;-87
2021/07/27 10:14:42;;;;;;;4.53;2.87;;;;;;;27.64;60.40;99926.05;1748583;81;21476;-88
2021/07/27 10:17:09;;;;;;;7.45;4.62;;;;;;;27.72;59.52;99930.61;1748378;81;21020;-88
2021/07/27 10:19:41;;;;;;;5.47;3.65;;;;;;;27.81;57.55;99920.30;1748396;82;21540;-89
2021/07/27 10:22:09;;;;;;;4.10;2.70;;;;;;;27.84;57.45;99922.53;1746617;81;20986;-88
2021/07/27 10:24:42;;;;;;;5.05;2.77;;;;;;;27.86;56.93;99914.16;1748698;81;20986;-88
2021/07/27 10:27:18;;;;;;;6.12;3.75;;;;;;;27.90;57.87;99917.50;1747155;81;21034;-87
2021/07/27 10:29:43;;;;;;;4.60;2.58;;;;;;;27.95;56.89;99915.46;1748252;81;21560;-89
2021/07/27 10:32:23;;;;;;;4.05;2.85;;;;;;;27.89;56.88;99910.97;1748499;81;20994;-89
2021/07/27 10:34:52;;;;;;;5.47;2.80;;;;;;;27.94;57.31;99916.53;1748394;82;21057;-87
2021/07/27 10:37:18;;;;;;;3.02;2.37;;;;;;;28.02;57.04;99913.45;1748173;81;21114;-88
2021/07/27 10:39:55;;;;;;;6.15;2.83;;;;;;;28.11;57.21;99908.52;1748945;81;21088;-88
2021/07/27 10:42:22;;;;;;;3.52;3.20;;;;;;;28.23;56.45;99913.38;1748177;81;21053;-88
2021/07/27 10:44:49;;;;;;;3.30;2.92;;;;;;;28.28;55.83;99914.86;1747997;81;20990;-88
2021/07/27 10:47:26;;;;;;;4.95;2.70;;;;;;;28.36;57.57;99904.98;1744053;82;20980;-88
2021/07/27 10:50:03;;;;;;;3.62;2.95;;;;;;;28.46;56.65;99904.41;1747883;81;21043;-89
2021/07/27 10:52:31;;;;;;;4.92;3.35;;;;;;;28.57;56.28;99898.69;1747318;81;21040;-89
2021/07/27 10:54:58;;;;;;;3.30;3.00;;;;;;;28.62;55.58;99905.56;1744317;82;20993;-86
2021/07/27 10:57:30;;;;;;;4.20;3.30;;;;;;;28.59;54.88;99903.33;1747756;81;20944;-87
2021/07/27 10:59:56;;;;;;;5.00;3.22;;;;;;;28.58;55.04;99903.05;1746739;82;20967;-88
2021/07/27 11:02:24;;;;;;;6.12;3.35;;;;;;;28.60;55.91;99895.50;1747856;81;20994;-88
2021/07/27 11:04:50;;;;;;;4.97;3.17;;;;;;;28.66;55.28;99899.94;1748023;81;21070;-88
2021/07/27 11:07:18;;;;;;;4.92;2.95;;;;;;;28.77;55.54;99897.73;1747941;81;20956;-88
2021/07/27 11:09:57;;;;;;;6.00;2.83;;;;;;;28.91;55.97;99899.09;1748106;81;21041;-88
2021/07/27 11:12:41;;;;;;;2.72;2.40;;;;;;;29.00;55.75;99892.78;1747874;81;21468;-87
2021/07/27 11:15:12;;;;;;;7.12;3.47;;;;;;;29.09;53.46;99887.77;1746499;82;21529;-89
2021/07/27 11:18:00;;;;;;;8.17;3.23;;;;;;;29.16;53.94;99897.97;1748692;81;21355;-89
2021/07/27 11:20:33;;;;;;;4.10;3.17;;;;;;;29.15;53.17;99902.55;1749640;81;21053;-90
2021/07/27 11:23:08;;;;;;;3.37;3.08;;;;;;;29.05;53.91;99895.58;1745598;82;20982;-89
2021/07/27 11:25:34;;;;;;;3.95;3.12;;;;;;;29.05;53.95;99896.94;1747996;81;20920;-88
2021/07/27 11:28:12;;;;;;;4.42;2.60;;;;;;;29.03;53.50;99888.77;1747922;81;21014;-88
2021/07/27 11:30:39;;;;;;;6.40;3.60;;;;;;;29.04;53.96;99890.41;1750185;82;21927;-85
2021/07/27 11:33:18;;;;;;;4.40;2.80;;;;;;;29.00;53.01;99895.50;1747732;82;21004;-87
2021/07/27 11:35:48;;;;;;;4.95;3.58;;;;;;;28.90;52.32;99894.73;1745780;82;21321;-87
2021/07/27 11:38:32;;;;;;;5.22;3.33;;;;;;;28.75;52.30;99897.14;1747710;81;20996;-88
2021/07/27 11:41:07;;;;;;;7.15;3.37;;;;;;;28.65;52.48;99890.97;1744189;82;21041;-87
2021/07/27 11:43:39;;;;;;;5.05;3.12;;;;;;;28.60;52.78;99893.60;1747739;81;21488;-88
2021/07/27 11:46:16;;;;;;;4.28;3.30;;;;;;;28.52;51.93;99890.71;1748149;81;20966;-89
2021/07/27 11:48:43;;;;;;;6.10;3.40;;;;;;;28.45;51.75;99892.73;1750247;81;21021;-87
2021/07/27 11:51:10;;;;;;;3.35;2.85;;;;;;;28.40;52.47;99894.55;1748341;81;20994;-88
2021/07/27 11:53:40;;;;;;;3.37;3.08;;;;;;;28.38;52.86;99891.20;1743986;82;20986;-88
2021/07/27 11:56:12;;;;;;;3.25;2.70;;;;;;;28.36;52.82;99895.48;1737463;82;21023;-87
2021/07/27 11:58:38;;;;;;;3.90;3.37;;;;;;;28.30;53.02;99891.05;1743424;82;21002;-87
2021/07/27 12:01:05;;;;;;;3.83;3.17;;;;;;;28.24;52.70;99887.92;1737943;82;21514;-89
2021/07/27 12:03:31;;;;;;;7.10;3.42;;;;;;;28.19;53.11;99888.62;1751176;81;20995;-88